Time;durP1;ratioP1;P1;durP2;ratioP2;P2;SDS_P1;SDS_P2;PMS_P1;PMS_P2;Temp;Humidity;BMP_temperature;BMP_pressure;BME280_temperature;BME280_humidity;BME280_pressure;Samples;Min_cycle;Max_cycle;Signal;HPM_P1;HPM_P2
2021/10/03 00:00:12;;;;;;;8.13;6.20;;;16.50;72.10;;;;;;5073164;28;20028;-69
2021/10/03 00:02:40;;;;;;;9.15;5.68;;;16.50;72.20;;;;;;5073209;28;20024;-69
2021/10/03 00:05:09;;;;;;;8.80;5.53;;;16.40;72.10;;;;;;5072845;28;20492;-69
2021/10/03 00:07:37;;;;;;;11.25;5.80;;;16.50;72.10;;;;;;5072700;28;20570;-68
2021/10/03 00:10:04;;;;;;;7.70;5.68;;;16.50;72.30;;;;;;5074997;28;20536;-68
2021/10/03 00:12:29;;;;;;;7.05;5.20;;;16.50;72.40;;;;;;5077179;28;20016;-68
2021/10/03 00:14:55;;;;;;;11.13;6.15;;;16.50;72.30;;;;;;5077144;28;20074;-69
2021/10/03 00:17:21;;;;;;;7.15;5.75;;;16.50;72.30;;;;;;5076749;28;20025;-68
2021/10/03 00:19:47;;;;;;;9.07;5.63;;;16.50;72.50;;;;;;5076636;28;20058;-68
2021/10/03 00:22:13;;;;;;;7.10;5.45;;;16.50;72.60;;;;;;5076624;28;20031;-68
2021/10/03 00:24:38;;;;;;;9.80;5.93;;;16.60;72.50;;;;;;5076744;28;20055;-69
2021/10/03 00:27:04;;;;;;;9.82;5.50;;;16.50;72.60;;;;;;5076803;28;20488;-69
2021/10/03 00:29:31;;;;;;;8.77;5.68;;;16.50;72.70;;;;;;5076496;28;20041;-69
2021/10/03 00:31:57;;;;;;;10.15;5.68;;;16.50;72.60;;;;;;5076563;28;20021;-68
2021/10/03 00:34:23;;;;;;;9.00;6.35;;;16.50;72.30;;;;;;5076655;28;20090;-69
2021/10/03 00:36:48;;;;;;;9.15;5.45;;;16.60;71.80;;;;;;5076854;28;20465;-68
2021/10/03 00:39:14;;;;;;;7.75;5.63;;;16.70;71.30;;;;;;5076425;28;20089;-68
2021/10/03 00:41:40;;;;;;;10.10;5.63;;;16.70;70.80;;;;;;5076519;28;20413;-69
2021/10/03 00:44:06;;;;;;;7.00;5.70;;;16.70;70.90;;;;;;5076396;28;20113;-68
2021/10/03 00:46:33;;;;;;;13.43;5.28;;;16.70;70.80;;;;;;5076181;28;20063;-69
2021/10/03 00:48:58;;;;;;;6.82;5.53;;;16.60;70.70;;;;;;5076285;28;20024;-69
2021/10/03 00:51:24;;;;;;;6.35;5.20;;;16.60;71.10;;;;;;5076408;28;20032;-68
2021/10/03 00:53:50;;;;;;;8.23;5.75;;;16.60;70.90;;;;;;5076271;28;20082;-68
2021/10/03 00:56:17;;;;;;;9.93;5.15;;;16.70;70.30;;;;;;5076181;28;20054;-68
2021/10/03 00:58:44;;;;;;;7.68;4.82;;;16.70;69.90;;;;;;5073679;28;20032;-69
2021/10/03 01:01:11;;;;;;;7.82;5.03;;;16.70;70.10;;;;;;5072837;28;20033;-68
2021/10/03 01:03:37;;;;;;;9.77;4.88;;;16.60;70.50;;;;;;5072985;28;20552;-68
2021/10/03 01:06:06;;;;;;;8.85;5.30;;;16.50;70.80;;;;;;5075849;28;20024;-68
2021/10/03 01:08:32;;;;;;;8.43;5.32;;;16.40;71.40;;;;;;5075849;28;20028;-69
2021/10/03 01:10:57;;;;;;;8.45;5.30;;;16.30;71.50;;;;;;5075792;28;20063;-68
2021/10/03 01:13:24;;;;;;;10.30;5.72;;;16.30;71.60;;;;;;5075530;28;20461;-68
2021/10/03 01:15:52;;;;;;;10.38;5.03;;;16.30;71.70;;;;;;5075572;28;20024;-69
2021/10/03 01:18:19;;;;;;;7.38;5.38;;;16.40;79.40;;;;;;5075641;28;20447;-68
2021/10/03 01:20:45;;;;;;;8.80;5.78;;;16.30;72.30;;;;;;5075223;28;20377;-69
2021/10/03 01:23:12;;;;;;;10.32;5.88;;;16.30;72.20;;;;;;5075657;28;20461;-69
2021/10/03 01:25:43;;;;;;;8.75;4.78;;;16.30;71.90;;;;;;5074104;28;20032;-69
2021/10/03 01:28:08;;;;;;;8.93;5.55;;;16.30;71.90;;;;;;5075259;28;20063;-68
2021/10/03 01:30:36;;;;;;;9.45;5.20;;;16.30;71.80;;;;;;5075238;28;20473;-69
2021/10/03 01:33:01;;;;;;;6.93;5.10;;;16.30;72.10;;;;;;5075381;28;20052;-69
2021/10/03 01:35:27;;;;;;;7.60;4.88;;;16.30;72.00;;;;;;5074993;28;20056;-69
2021/10/03 01:37:53;;;;;;;8.38;4.88;;;16.30;71.60;;;;;;5075229;28;20032;-69
2021/10/03 01:40:20;;;;;;;11.35;5.35;;;16.30;71.50;;;;;;5075269;28;20404;-68
2021/10/03 01:42:46;;;;;;;9.18;5.00;;;16.30;72.00;;;;;;5075061;28;20104;-69
2021/10/03 01:45:16;;;;;;;6.22;4.93;;;16.40;71.20;;;;;;5074998;28;20020;-68
2021/10/03 01:48:23;;;;;;;6.78;4.80;;;16.30;71.40;;;;;;5075329;28;20025;-68
2021/10/03 01:50:50;;;;;;;7.78;5.47;;;16.20;71.20;;;;;;5052980;28;20118;-68
2021/10/03 01:53:25;;;;;;;7.78;5.25;;;16.30;73.10;;;;;;5052989;28;20524;-68
2021/10/03 01:55:52;;;;;;;6.65;4.80;;;16.30;72.30;;;;;;5065120;28;20370;-69
2021/10/03 01:58:20;;;;;;;7.60;5.20;;;16.20;72.70;;;;;;5074525;28;20031;-69
2021/10/03 02:00:50;;;;;;;8.02;4.93;;;16.20;72.90;;;;;;5073752;28;20361;-68
2021/10/03 02:03:16;;;;;;;9.75;5.35;;;16.10;72.80;;;;;;5074695;28;20143;-68
2021/10/03 02:05:44;;;;;;;11.13;5.32;;;16.10;72.50;;;;;;5074466;28;20024;-68
2021/10/03 02:08:11;;;;;;;9.75;4.75;;;16.20;73.80;;;;;;5074856;28;20126;-69
2021/10/03 02:10:40;;;;;;;8.65;5.22;;;16.10;72.40;;;;;;5074677;28;20432;-69
2021/10/03 02:13:07;;;;;;;10.48;5.38;;;16.00;72.60;;;;;;5074681;28;20031;-68
2021/10/03 02:15:33;;;;;;;6.38;4.70;;;16.10;72.70;;;;;;5074602;28;20378;-68
2021/10/03 02:17:59;;;;;;;14.30;4.90;;;16.10;72.90;;;;;;5074405;28;20028;-69
2021/10/03 02:20:25;;;;;;;9.00;5.38;;;16.00;73.10;;;;;;5074478;28;20028;-68
2021/10/03 02:22:53;;;;;;;7.13;5.15;;;16.10;72.90;;;;;;5074472;28;20052;-69
2021/10/03 02:25:19;;;;;;;8.82;6.00;;;16.10;73.60;;;;;;5074602;28;20029;-68
2021/10/03 02:27:45;;;;;;;10.30;5.70;;;16.00;72.90;;;;;;5074701;28;20469;-69
2021/10/03 02:30:11;;;;;;;12.73;5.60;;;16.00;73.50;;;;;;5074643;28;20040;-68
2021/10/03 02:32:37;;;;;;;6.82;5.03;;;15.90;73.70;;;;;;5073775;28;20056;-69
2021/10/03 02:35:06;;;;;;;10.23;5.75;;;15.90;73.70;;;;;;5074245;28;20483;-69
2021/10/03 02:37:31;;;;;;;7.80;5.35;;;15.90;73.90;;;;;;5074214;28;20032;-68
2021/10/03 02:39:57;;;;;;;7.97;5.15;;;15.90;74.10;;;;;;5073940;28;20115;-68
2021/10/03 02:42:24;;;;;;;7.45;5.43;;;15.90;74.20;;;;;;5074158;28;20024;-68
2021/10/03 02:44:49;;;;;;;7.55;4.97;;;15.90;74.40;;;;;;5074061;28;20021;-68
2021/10/03 02:47:15;;;;;;;8.93;5.40;;;15.90;74.10;;;;;;5073898;28;20023;-69
2021/10/03 02:49:43;;;;;;;10.60;5.32;;;15.90;74.20;;;;;;5074021;28;20037;-69
2021/10/03 02:52:11;;;;;;;11.63;5.25;;;15.90;74.00;;;;;;5074056;28;20032;-69
2021/10/03 02:54:37;;;;;;;12.18;5.63;;;15.90;74.50;;;;;;5073915;28;20132;-68
2021/10/03 02:57:04;;;;;;;10.48;5.25;;;15.90;74.30;;;;;;5073844;28;20021;-69
2021/10/03 02:59:30;;;;;;;6.03;5.43;;;15.90;73.70;;;;;;5073773;28;20031;-69
2021/10/03 03:01:56;;;;;;;13.90;5.20;;;16.00;73.50;;;;;;5074493;28;20024;-69
2021/10/03 03:04:22;;;;;;;5.38;4.45;;;16.00;73.50;;;;;;5073562;28;20025;-68
2021/10/03 03:06:47;;;;;;;10.35;5.15;;;16.00;73.50;;;;;;5073652;28;20507;-68
2021/10/03 03:09:13;;;;;;;6.75;5.65;;;16.00;73.80;;;;;;5073648;28;20024;-69
2021/10/03 03:11:39;;;;;;;7.13;4.93;;;16.00;73.80;;;;;;5073507;28;20100;-68
2021/10/03 03:14:05;;;;;;;7.00;5.53;;;16.00;74.10;;;;;;5073603;28;20134;-69
2021/10/03 03:16:30;;;;;;;9.32;5.80;;;16.00;74.10;;;;;;5073674;28;20027;-68
2021/10/03 03:18:56;;;;;;;10.13;5.57;;;16.00;73.90;;;;;;5073336;28;20033;-69
2021/10/03 03:21:22;;;;;;;10.45;5.80;;;16.00;73.90;;;;;;5073717;28;20046;-69
2021/10/03 03:23:47;;;;;;;11.48;5.10;;;16.00;74.10;;;;;;5073322;28;20028;-68
2021/10/03 03:26:13;;;;;;;7.95;5.10;;;16.10;74.70;;;;;;5072965;28;20473;-68
2021/10/03 03:28:39;;;;;;;7.68;5.78;;;16.10;74.50;;;;;;5073222;28;20477;-68
2021/10/03 03:31:05;;;;;;;7.85;5.38;;;16.10;74.10;;;;;;5073064;28;20036;-68
2021/10/03 03:33:30;;;;;;;10.40;5.15;;;16.10;73.90;;;;;;5073470;28;20111;-68
2021/10/03 03:35:56;;;;;;;9.13;5.13;;;16.20;73.70;;;;;;5073417;28;20473;-69
2021/10/03 03:38:22;;;;;;;7.13;5.30;;;16.10;73.70;;;;;;5073024;28;20020;-68
2021/10/03 03:40:48;;;;;;;7.38;5.18;;;16.20;73.90;;;;;;5073478;28;20089;-68
2021/10/03 03:43:13;;;;;;;10.88;5.70;;;16.20;74.80;;;;;;5072866;28;20028;-68
2021/10/03 03:45:39;;;;;;;6.55;5.20;;;16.20;74.70;;;;;;5072408;28;20477;-69
2021/10/03 03:48:05;;;;;;;9.10;5.40;;;16.20;74.60;;;;;;5073271;28;20070;-68
2021/10/03 03:50:32;;;;;;;10.95;5.65;;;16.20;74.30;;;;;;5073094;28;20028;-68
2021/10/03 03:52:59;;;;;;;6.82;5.50;;;16.20;74.30;;;;;;5073045;28;20454;-69
2021/10/03 03:55:25;;;;;;;13.40;5.00;;;16.20;74.30;;;;;;5072933;28;20068;-68
2021/10/03 03:57:53;;;;;;;6.60;5.07;;;16.20;74.70;;;;;;5073447;28;20055;-68
2021/10/03 04:00:19;;;;;;;6.88;5.53;;;16.30;75.00;;;;;;5072826;28;20035;-69
2021/10/03 04:02:45;;;;;;;9.10;5.13;;;16.30;75.10;;;;;;5073028;28;20032;-69
2021/10/03 04:05:11;;;;;;;9.07;5.43;;;16.30;75.20;;;;;;5073070;28;20029;-68
2021/10/03 04:07:37;;;;;;;7.35;5.20;;;16.30;74.90;;;;;;5072928;28;20056;-68
2021/10/03 04:10:04;;;;;;;7.25;4.93;;;16.30;74.90;;;;;;5072916;28;20016;-68
2021/10/03 04:12:30;;;;;;;9.02;5.35;;;16.40;75.10;;;;;;5071658;28;20047;-68
2021/10/03 04:14:56;;;;;;;10.18;5.70;;;16.30;75.20;;;;;;5072802;28;20484;-69
2021/10/03 04:17:22;;;;;;;8.80;5.40;;;16.30;75.50;;;;;;5073119;28;20104;-68
2021/10/03 04:19:47;;;;;;;6.60;5.00;;;16.30;75.40;;;;;;5072754;28;20024;-69
2021/10/03 04:22:13;;;;;;;8.20;5.00;;;16.30;75.20;;;;;;5072640;28;20028;-68
2021/10/03 04:24:39;;;;;;;8.02;4.85;;;16.40;74.90;;;;;;5071449;28;20021;-69
2021/10/03 04:27:05;;;;;;;6.32;5.28;;;16.40;74.50;;;;;;5072729;28;20025;-69
2021/10/03 04:29:31;;;;;;;7.75;4.80;;;16.40;75.70;;;;;;5072421;28;20048;-69
2021/10/03 04:31:56;;;;;;;5.30;4.68;;;16.40;76.00;;;;;;5072687;28;20024;-68
2021/10/03 04:34:22;;;;;;;7.32;4.93;;;16.40;76.20;;;;;;5072938;28;20033;-69
2021/10/03 04:36:47;;;;;;;7.78;4.82;;;16.60;79.10;;;;;;5072909;28;20081;-69
2021/10/03 04:39:13;;;;;;;8.40;4.65;;;16.60;86.70;;;;;;5072442;28;20052;-69
2021/10/03 04:41:39;;;;;;;9.63;5.60;;;16.60;79.10;;;;;;5072582;28;20070;-68
2021/10/03 04:44:05;;;;;;;8.27;5.10;;;16.60;79.60;;;;;;5072392;28;20107;-69
2021/10/03 04:46:30;;;;;;;7.32;4.82;;;16.50;80.30;;;;;;5072501;28;20107;-68
2021/10/03 04:48:56;;;;;;;5.90;4.97;;;16.60;80.80;;;;;;5072267;28;20112;-69
2021/10/03 04:51:22;;;;;;;7.10;4.97;;;16.60;81.00;;;;;;5072353;28;20449;-68
2021/10/03 04:53:47;;;;;;;6.30;4.95;;;16.50;81.20;;;;;;5072601;28;20029;-68
2021/10/03 04:56:13;;;;;;;6.35;4.88;;;16.50;81.70;;;;;;5074798;28;20035;-68
2021/10/03 04:58:38;;;;;;;7.22;4.88;;;16.50;82.20;;;;;;5075972;28;20412;-69
2021/10/03 05:01:04;;;;;;;11.43;4.85;;;16.50;83.00;;;;;;5075995;28;20354;-68
2021/10/03 05:03:30;;;;;;;7.75;5.10;;;16.50;83.50;;;;;;5075952;28;20417;-68
2021/10/03 05:05:57;;;;;;;10.93;5.05;;;16.50;83.90;;;;;;5075985;28;20044;-68
2021/10/03 05:08:22;;;;;;;6.65;4.35;;;16.60;83.10;;;;;;5075973;28;20111;-68
2021/10/03 05:10:48;;;;;;;5.30;4.65;;;16.60;86.70;;;;;;5076077;28;20498;-69
2021/10/03 05:13:14;;;;;;;7.93;5.00;;;16.60;87.90;;;;;;5075775;28;20423;-68
2021/10/03 05:15:42;;;;;;;6.03;4.88;;;16.60;88.60;;;;;;5075732;28;20032;-68
2021/10/03 05:18:09;;;;;;;10.00;4.78;;;16.60;89.20;;;;;;5075903;28;20036;-69
2021/10/03 05:20:35;;;;;;;8.50;5.07;;;16.60;90.50;;;;;;5074215;28;20059;-68
2021/10/03 05:23:00;;;;;;;6.63;4.85;;;16.60;90.40;;;;;;5075684;28;20056;-68
2021/10/03 05:25:26;;;;;;;9.02;5.00;;;16.60;87.50;;;;;;5075437;28;20554;-68
2021/10/03 05:27:52;;;;;;;7.25;4.97;;;16.60;90.10;;;;;;5075584;28;20024;-68
2021/10/03 05:30:17;;;;;;;7.60;4.60;;;16.60;89.50;;;;;;5075371;28;20041;-69
2021/10/03 05:32:45;;;;;;;9.68;5.43;;;16.60;89.80;;;;;;5075475;28;20028;-68
2021/10/03 05:35:11;;;;;;;6.05;4.78;;;16.60;89.00;;;;;;5075471;28;20439;-69
2021/10/03 05:37:37;;;;;;;6.80;4.95;;;16.60;83.20;;;;;;5075160;28;20484;-68
2021/10/03 05:40:04;;;;;;;7.90;4.80;;;16.60;83.20;;;;;;5075221;28;20021;-69
2021/10/03 05:42:30;;;;;;;8.85;4.95;;;16.60;81.80;;;;;;5075196;28;20025;-69
2021/10/03 05:44:56;;;;;;;10.32;4.55;;;16.60;82.00;;;;;;5075139;28;20124;-69
2021/10/03 05:47:21;;;;;;;13.02;4.88;;;16.60;84.00;;;;;;5075091;28;20116;-68
2021/10/03 05:49:47;;;;;;;9.80;4.90;;;16.70;87.60;;;;;;5074999;28;20052;-69
2021/10/03 05:52:13;;;;;;;11.70;5.10;;;16.70;92.10;;;;;;5075377;28;20024;-69
2021/10/03 05:54:38;;;;;;;7.80;4.40;;;16.70;88.10;;;;;;5074881;28;20034;-69
2021/10/03 05:57:04;;;;;;;7.88;4.93;;;16.70;81.90;;;;;;5075230;28;20085;-69
2021/10/03 05:59:30;;;;;;;9.65;5.03;;;16.70;79.20;;;;;;5074774;28;20376;-69
2021/10/03 06:01:55;;;;;;;9.35;5.00;;;16.70;78.70;;;;;;5075223;28;20025;-69
2021/10/03 06:04:22;;;;;;;6.30;4.25;;;16.70;80.60;;;;;;5075180;28;20028;-68
2021/10/03 06:06:47;;;;;;;12.20;4.75;;;16.80;85.30;;;;;;5070412;28;20036;-69
2021/10/03 06:09:13;;;;;;;7.03;5.05;;;;;;;;;;5072306;28;20353;-69
2021/10/03 06:11:40;;;;;;;9.25;4.50;;;16.70;97.00;;;;;;5074622;28;20016;-69
2021/10/03 06:14:06;;;;;;;6.85;4.70;;;16.80;91.20;;;;;;5074227;28;20377;-69
2021/10/03 06:16:31;;;;;;;7.40;5.40;;;16.80;88.50;;;;;;5074573;28;20089;-69
2021/10/03 06:18:57;;;;;;;9.45;5.30;;;16.80;86.90;;;;;;5074575;28;20056;-69
2021/10/03 06:21:25;;;;;;;7.57;5.25;;;;;;;;;;5074019;28;20017;-69
2021/10/03 06:23:51;;;;;;;6.38;4.90;;;16.80;99.70;;;;;;5074356;28;20020;-69
2021/10/03 06:26:18;;;;;;;6.15;4.85;;;16.90;93.70;;;;;;5074257;28;20366;-71
2021/10/03 06:28:44;;;;;;;11.90;5.03;;;17.00;92.70;;;;;;5074231;28;20024;-69
2021/10/03 06:31:10;;;;;;;7.97;5.47;;;17.00;87.00;;;;;;5074487;28;20036;-69
2021/10/03 06:33:37;;;;;;;7.45;5.53;;;17.00;87.30;;;;;;5073669;28;20029;-70
2021/10/03 06:36:04;;;;;;;7.78;5.38;;;17.00;87.50;;;;;;5071460;28;20024;-69
2021/10/03 06:38:30;;;;;;;7.93;5.40;;;16.90;76.70;;;;;;5071522;28;20025;-69
2021/10/03 06:40:55;;;;;;;8.30;5.50;;;16.90;77.50;;;;;;5073834;28;20028;-69
2021/10/03 06:43:21;;;;;;;8.23;5.10;;;16.90;77.70;;;;;;5074014;28;20384;-68
2021/10/03 06:45:47;;;;;;;9.15;5.50;;;17.00;77.60;;;;;;5073713;28;20028;-69
2021/10/03 06:48:12;;;;;;;8.10;5.28;;;17.00;77.60;;;;;;5073281;28;20021;-68
2021/10/03 06:50:38;;;;;;;11.20;5.53;;;17.00;77.40;;;;;;5072122;28;20041;-69
2021/10/03 06:53:04;;;;;;;6.65;5.40;;;17.00;77.00;;;;;;5073911;28;20021;-69
2021/10/03 06:55:31;;;;;;;10.82;5.47;;;17.10;77.20;;;;;;5073850;28;20043;-69
2021/10/03 06:57:57;;;;;;;16.45;6.60;;;17.10;77.20;;;;;;5073990;28;20029;-69
2021/10/03 07:00:23;;;;;;;9.63;5.70;;;17.20;77.00;;;;;;5073629;28;20067;-69
2021/10/03 07:02:49;;;;;;;10.48;5.03;;;17.20;76.80;;;;;;5073460;28;20103;-69
2021/10/03 07:05:15;;;;;;;10.07;5.22;;;17.20;76.30;;;;;;5073396;28;20417;-69
2021/10/03 07:07:40;;;;;;;10.55;5.03;;;17.30;76.00;;;;;;5073569;28;20066;-69
2021/10/03 07:10:06;;;;;;;10.95;5.63;;;17.30;75.90;;;;;;5073666;28;20016;-69
2021/10/03 07:12:32;;;;;;;8.02;5.25;;;17.30;75.70;;;;;;5073554;28;20028;-68
2021/10/03 07:14:58;;;;;;;7.22;4.63;;;17.30;75.40;;;;;;5073451;28;20086;-69
2021/10/03 07:17:23;;;;;;;9.45;4.90;;;17.40;74.90;;;;;;5073475;28;20488;-70
2021/10/03 07:19:49;;;;;;;8.15;4.90;;;17.40;75.10;;;;;;5073211;28;20027;-69
2021/10/03 07:22:14;;;;;;;9.73;5.28;;;17.40;75.60;;;;;;5073389;28;20427;-69
2021/10/03 07:24:40;;;;;;;14.20;5.68;;;17.40;75.70;;;;;;5073218;28;20487;-69
2021/10/03 07:27:06;;;;;;;7.85;5.10;;;17.50;75.80;;;;;;5073289;28;20028;-69
2021/10/03 07:29:33;;;;;;;11.88;5.47;;;17.50;75.90;;;;;;5073104;28;20390;-69
2021/10/03 07:31:59;;;;;;;7.15;5.38;;;17.40;76.10;;;;;;5073332;28;20062;-69
2021/10/03 07:34:25;;;;;;;6.72;4.90;;;17.50;76.40;;;;;;5072947;28;20515;-69
2021/10/03 07:36:51;;;;;;;6.00;4.78;;;17.50;81.10;;;;;;5073261;28;20024;-69
2021/10/03 07:39:16;;;;;;;12.68;5.75;;;17.50;76.20;;;;;;5073242;28;20029;-69
2021/10/03 07:41:42;;;;;;;8.48;5.57;;;17.50;76.10;;;;;;5073352;28;20024;-69
2021/10/03 07:44:08;;;;;;;7.22;5.20;;;17.50;75.90;;;;;;5073433;28;20036;-69
2021/10/03 07:46:34;;;;;;;7.47;5.03;;;17.50;76.10;;;;;;5073150;28;20473;-69
2021/10/03 07:48:59;;;;;;;8.90;4.78;;;17.60;76.20;;;;;;5072817;28;20035;-69
2021/10/03 07:51:25;;;;;;;8.68;5.07;;;17.50;75.80;;;;;;5073052;28;20439;-68
2021/10/03 07:53:51;;;;;;;7.32;5.05;;;17.60;75.70;;;;;;5073249;28;20040;-68
2021/10/03 07:56:16;;;;;;;11.73;5.60;;;17.60;75.70;;;;;;5073235;28;20074;-69
2021/10/03 07:58:42;;;;;;;8.27;5.25;;;17.60;75.40;;;;;;5072967;28;20104;-69
2021/10/03 08:01:08;;;;;;;15.07;5.45;;;17.60;75.30;;;;;;5072980;28;20048;-68
2021/10/03 08:03:34;;;;;;;7.60;5.47;;;17.70;75.10;;;;;;5073101;28;20448;-68
2021/10/03 08:05:59;;;;;;;9.57;5.90;;;17.70;74.80;;;;;;5073153;28;20056;-68
2021/10/03 08:08:25;;;;;;;7.43;5.82;;;17.70;74.60;;;;;;5072987;28;20025;-69
2021/10/03 08:10:51;;;;;;;9.02;5.45;;;17.70;74.50;;;;;;5072906;28;20017;-69
2021/10/03 08:13:17;;;;;;;9.50;5.32;;;17.80;74.60;;;;;;5073098;28;20025;-68
2021/10/03 08:15:43;;;;;;;6.18;5.57;;;17.80;74.20;;;;;;5072655;28;20036;-69
2021/10/03 08:18:10;;;;;;;7.60;5.07;;;17.80;74.00;;;;;;5073041;28;20103;-69
2021/10/03 08:20:37;;;;;;;7.90;5.43;;;17.80;74.00;;;;;;5072801;28;20032;-69
2021/10/03 08:23:03;;;;;;;8.27;5.03;;;17.90;74.20;;;;;;5072791;28;20032;-69
2021/10/03 08:25:29;;;;;;;7.28;5.28;;;17.90;75.10;;;;;;5072437;28;20021;-69
2021/10/03 08:27:55;;;;;;;7.53;4.95;;;17.90;75.20;;;;;;5072729;28;20025;-68
2021/10/03 08:30:22;;;;;;;6.85;5.20;;;17.80;75.30;;;;;;5073414;28;20127;-69
2021/10/03 08:32:48;;;;;;;7.60;5.45;;;17.90;75.20;;;;;;5076656;28;20029;-69
2021/10/03 08:35:14;;;;;;;10.35;5.82;;;17.90;75.00;;;;;;5076097;28;20036;-69
2021/10/03 08:37:42;;;;;;;9.57;5.00;;;17.90;74.50;;;;;;5076643;28;20027;-68
2021/10/03 08:40:09;;;;;;;7.38;5.07;;;18.00;74.70;;;;;;5076469;28;20407;-69
2021/10/03 08:42:36;;;;;;;8.48;5.07;;;18.00;74.60;;;;;;5076606;28;20035;-69
2021/10/03 08:45:02;;;;;;;10.75;5.30;;;17.90;74.60;;;;;;5076176;28;20025;-68
2021/10/03 08:47:28;;;;;;;11.18;6.80;;;18.00;75.10;;;;;;5076415;28;20031;-69
2021/10/03 08:49:55;;;;;;;14.98;8.15;;;18.00;74.30;;;;;;5076162;28;20500;-68
2021/10/03 08:52:22;;;;;;;13.52;7.60;;;18.00;74.50;;;;;;5076121;28;20029;-69
2021/10/03 08:54:48;;;;;;;10.45;6.63;;;18.00;74.90;;;;;;5075793;28;20484;-69
2021/10/03 08:57:13;;;;;;;8.50;6.30;;;18.00;75.10;;;;;;5076096;28;20056;-69
2021/10/03 09:00:19;;;;;;;9.45;6.25;;;18.10;75.00;;;;;;5076198;28;20214;-69
2021/10/03 09:02:53;;;;;;;8.95;6.43;;;18.10;75.60;;;;;;5076030;28;20044;-78
2021/10/03 09:05:21;;;;;;;9.68;6.50;;;18.10;75.50;;;;;;5075941;28;20020;-69
2021/10/03 09:08:13;;;;;;;7.93;6.05;;;18.20;75.70;;;;;;5075925;28;20036;-69
2021/10/03 09:10:57;;;;;;;8.30;5.35;;;18.20;75.90;;;;;;5075610;28;20036;-69
2021/10/03 09:13:31;;;;;;;9.48;5.32;;;18.30;75.30;;;;;;5075867;28;20017;-69
2021/10/03 09:16:03;;;;;;;8.55;5.55;;;18.30;74.60;;;;;;5076075;28;20044;-69
2021/10/03 09:18:49;;;;;;;9.05;5.85;;;18.40;74.20;;;;;;5075696;28;20469;-68
2021/10/03 09:21:30;;;;;;;6.60;5.40;;;18.40;73.80;;;;;;5075786;28;20028;-69
2021/10/03 09:24:11;;;;;;;7.95;4.93;;;18.40;73.70;;;;;;5075936;28;20392;-69
2021/10/03 09:26:38;;;;;;;7.88;5.50;;;18.50;73.80;;;;;;5075714;28;20473;-69
2021/10/03 09:29:42;;;;;;;8.52;5.55;;;18.50;73.60;;;;;;5075317;28;20546;-69
2021/10/03 09:32:14;;;;;;;10.07;6.03;;;18.50;73.60;;;;;;5053695;28;20044;-69
2021/10/03 09:34:47;;;;;;;8.65;5.80;;;18.50;74.10;;;;;;5053337;28;20040;-69
2021/10/03 09:37:27;;;;;;;7.65;5.05;;;18.50;74.50;;;;;;5065680;28;20039;-69
2021/10/03 09:40:16;;;;;;;7.28;5.13;;;18.50;75.00;;;;;;5075207;28;20029;-68
2021/10/03 09:42:54;;;;;;;10.52;5.20;;;18.50;75.60;;;;;;5075162;28;20461;-69
2021/10/03 09:45:21;;;;;;;8.73;6.15;;;18.50;75.50;;;;;;5075536;28;20354;-69
2021/10/03 09:47:58;;;;;;;7.55;5.25;;;18.50;75.60;;;;;;5075377;28;20500;-69
2021/10/03 09:50:24;;;;;;;7.53;5.45;;;18.50;75.30;;;;;;5074765;28;20028;-69
2021/10/03 09:52:50;;;;;;;7.18;5.60;;;18.50;75.20;;;;;;5075091;28;20035;-69
2021/10/03 09:55:18;;;;;;;8.88;5.60;;;18.60;75.10;;;;;;5075197;28;20489;-69
2021/10/03 09:57:45;;;;;;;7.80;5.00;;;18.60;74.90;;;;;;5075202;28;20103;-69
2021/10/03 10:00:15;;;;;;;6.32;5.30;;;18.70;75.20;;;;;;5075045;28;20054;-68
2021/10/03 10:02:44;;;;;;;10.93;5.75;;;18.70;75.00;;;;;;5074999;28;20033;-69
2021/10/03 10:05:11;;;;;;;5.65;4.80;;;18.70;74.70;;;;;;5075104;28;20023;-68
2021/10/03 10:07:37;;;;;;;6.82;5.50;;;18.70;74.40;;;;;;5074963;28;20021;-69
2021/10/03 10:10:07;;;;;;;6.68;5.30;;;18.80;74.40;;;;;;5074660;28;20027;-69
2021/10/03 10:12:38;;;;;;;7.25;4.75;;;18.80;74.50;;;;;;5074926;28;20038;-69
2021/10/03 10:15:10;;;;;;;6.80;5.03;;;18.80;74.40;;;;;;5074848;28;20036;-69
2021/10/03 10:17:40;;;;;;;5.50;4.47;;;18.80;74.20;;;;;;5074640;28;20427;-69
2021/10/03 10:20:18;;;;;;;9.77;5.28;;;18.80;73.80;;;;;;5074823;28;20028;-69
2021/10/03 10:22:56;;;;;;;6.72;5.38;;;18.80;73.80;;;;;;5074719;28;20033;-69
2021/10/03 10:25:42;;;;;;;5.90;5.22;;;18.90;74.00;;;;;;5074520;28;20017;-69
2021/10/03 10:28:12;;;;;;;7.22;4.93;;;18.90;73.90;;;;;;5073994;28;20036;-69
2021/10/03 10:31:00;;;;;;;7.78;6.22;;;18.90;74.40;;;;;;5072721;28;20052;-68
2021/10/03 10:33:26;;;;;;;8.43;5.75;;;18.90;74.30;;;;;;5074373;28;20079;-69
2021/10/03 10:36:16;;;;;;;7.63;5.55;;;18.90;73.90;;;;;;5074341;28;20430;-69
2021/10/03 10:39:07;;;;;;;7.00;5.00;;;19.00;73.90;;;;;;5074327;28;20016;-69
2021/10/03 10:41:42;;;;;;;6.22;5.15;;;19.00;73.40;;;;;;5074188;28;20025;-69
2021/10/03 10:44:28;;;;;;;6.78;5.28;;;19.00;73.10;;;;;;5074154;28;20036;-69
2021/10/03 10:46:57;;;;;;;6.55;5.28;;;19.00;73.50;;;;;;5074129;28;20028;-69
2021/10/03 10:49:47;;;;;;;6.82;5.00;;;19.00;73.40;;;;;;5073927;28;20032;-69
2021/10/03 10:52:19;;;;;;;7.03;5.32;;;19.00;73.60;;;;;;5073952;28;20423;-69
2021/10/03 10:55:04;;;;;;;7.30;4.80;;;19.00;73.50;;;;;;5073783;28;20437;-69
2021/10/03 10:57:45;;;;;;;6.68;5.10;;;19.00;73.30;;;;;;5073263;28;20127;-70
2021/10/03 11:00:30;;;;;;;9.88;5.13;;;19.00;73.20;;;;;;5070798;28;20503;-69
2021/10/03 11:03:01;;;;;;;7.15;4.47;;;19.00;73.10;;;;;;5071034;28;20052;-69
2021/10/03 11:05:36;;;;;;;6.05;4.60;;;19.00;73.10;;;;;;5073763;28;20028;-68
2021/10/03 11:08:09;;;;;;;5.22;4.63;;;19.00;73.50;;;;;;5073553;28;20028;-68
2021/10/03 11:11:14;;;;;;;10.88;5.28;;;19.00;72.40;;;;;;5073340;28;20487;-69
2021/10/03 11:13:44;;;;;;;9.35;5.72;;;19.00;72.50;;;;;;5069313;28;20033;-69
2021/10/03 11:16:23;;;;;;;8.50;6.55;;;19.00;72.90;;;;;;5073476;28;20029;-69
2021/10/03 11:19:16;;;;;;;10.40;6.28;;;19.00;73.50;;;;;;5073581;28;20016;-69
2021/10/03 11:21:48;;;;;;;7.53;5.47;;;19.00;73.50;;;;;;5073575;28;20372;-69
2021/10/03 11:24:18;;;;;;;6.53;5.57;;;19.10;73.40;;;;;;5071072;28;20458;-69
2021/10/03 11:26:51;;;;;;;9.73;5.85;;;19.10;73.20;;;;;;5070564;28;20028;-69
2021/10/03 11:29:19;;;;;;;8.93;5.88;;;19.10;72.90;;;;;;5071142;28;20051;-69
2021/10/03 11:31:50;;;;;;;7.35;5.72;;;19.10;73.00;;;;;;5072880;28;20077;-69
2021/10/03 11:34:37;;;;;;;10.53;6.70;;;19.20;73.30;;;;;;5073277;28;20056;-69
2021/10/03 11:37:15;;;;;;;12.15;6.85;;;19.20;73.90;;;;;;5073147;28;20024;-69
2021/10/03 11:39:43;;;;;;;9.98;6.65;;;19.20;73.50;;;;;;5072718;28;20044;-69
2021/10/03 11:42:11;;;;;;;6.47;5.70;;;19.30;73.30;;;;;;5073065;28;20028;-68
2021/10/03 11:44:39;;;;;;;9.02;5.15;;;19.30;73.10;;;;;;5071888;28;20059;-69
2021/10/03 11:47:10;;;;;;;7.03;5.05;;;19.30;73.50;;;;;;5072976;28;20032;-69
2021/10/03 11:49:39;;;;;;;7.20;5.10;;;19.40;73.30;;;;;;5073156;28;20092;-69
2021/10/03 11:52:06;;;;;;;8.23;5.07;;;19.40;73.00;;;;;;5073174;28;20020;-68
2021/10/03 11:54:45;;;;;;;7.78;5.32;;;19.40;72.00;;;;;;5072883;28;20036;-68
2021/10/03 11:57:29;;;;;;;9.50;5.30;;;19.40;72.30;;;;;;5073120;28;20066;-69
2021/10/03 12:00:04;;;;;;;7.70;5.20;;;19.50;72.90;;;;;;5072739;28;20044;-69
2021/10/03 12:02:36;;;;;;;6.65;5.63;;;19.60;72.90;;;;;;5072687;28;20021;-69
2021/10/03 12:05:02;;;;;;;6.57;4.85;;;19.70;73.00;;;;;;5073517;28;20484;-69
2021/10/03 12:07:28;;;;;;;6.82;5.13;;;19.70;73.20;;;;;;5077248;28;20401;-69
2021/10/03 12:10:15;;;;;;;8.00;4.88;;;19.80;72.10;;;;;;5076648;28;20028;-69
2021/10/03 12:12:56;;;;;;;6.40;5.05;;;19.90;72.00;;;;;;5077030;28;20376;-69
2021/10/03 12:15:44;;;;;;;7.60;4.55;;;19.80;72.00;;;;;;5076661;28;20040;-69
2021/10/03 12:18:28;;;;;;;5.70;4.97;;;19.90;72.00;;;;;;5076801;28;20100;-69
2021/10/03 12:21:04;;;;;;;7.88;5.13;;;20.00;72.20;;;;;;5076891;28;20043;-69
2021/10/03 12:23:42;;;;;;;9.15;4.82;;;20.00;73.30;;;;;;5076543;28;20056;-69
2021/10/03 12:26:36;;;;;;;5.72;4.60;;;20.10;74.50;;;;;;5076879;28;20056;-68
2021/10/03 12:29:05;;;;;;;8.85;4.82;;;20.10;74.10;;;;;;5076702;28;20036;-69
2021/10/03 12:31:58;;;;;;;8.48;4.70;;;20.20;73.80;;;;;;5076362;28;20095;-68
2021/10/03 12:34:25;;;;;;;6.53;5.07;;;20.30;74.30;;;;;;5076529;28;20036;-69
2021/10/03 12:36:53;;;;;;;5.95;4.50;;;20.30;73.50;;;;;;5076318;28;20154;-69
2021/10/03 12:39:34;;;;;;;7.90;4.57;;;20.30;72.90;;;;;;5075918;28;20020;-69
2021/10/03 12:42:11;;;;;;;8.00;5.55;;;20.30;72.70;;;;;;5075832;28;20104;-69
2021/10/03 12:44:38;;;;;;;7.13;4.85;;;20.40;73.50;;;;;;5076278;28;20066;-69
2021/10/03 12:47:05;;;;;;;11.50;4.85;;;20.40;73.30;;;;;;5075031;28;20110;-69
2021/10/03 12:49:32;;;;;;;6.60;4.43;;;20.50;72.70;;;;;;5076030;28;20052;-69
2021/10/03 12:51:58;;;;;;;10.60;4.88;;;20.50;73.00;;;;;;5076650;28;20108;-69
2021/10/03 12:54:24;;;;;;;7.13;4.70;;;20.50;72.80;;;;;;5076117;28;20024;-68